Time;durP1;ratioP1;P1;durP2;ratioP2;P2;SDS_P1;SDS_P2;PMS_P1;PMS_P2;Temp;Humidity;BMP_temperature;BMP_pressure;BME280_temperature;BME280_humidity;BME280_pressure;Samples;Min_cycle;Max_cycle;Signal;HPM_P1;HPM_P2
2024/03/20 00:02:02;;;;;;;20.27;11.10;;;10.80;99.90;;;;;;5017866;28;20103;-86
2024/03/20 00:04:27;;;;;;;28.17;11.98;;;10.80;99.90;;;;;;5017722;28;20022;-88
2024/03/20 00:06:53;;;;;;;26.50;12.15;;;10.80;99.90;;;;;;5017670;28;20050;-87
2024/03/20 00:09:19;;;;;;;26.20;10.30;;;10.70;99.90;;;;;;5017658;28;20015;-89
2024/03/20 00:11:47;;;;;;;24.58;10.93;;;10.80;99.90;;;;;;5017589;28;20073;-88
2024/03/20 00:14:14;;;;;;;27.88;11.20;;;10.70;99.90;;;;;;5017641;28;20094;-87
2024/03/20 00:16:40;;;;;;;22.73;11.43;;;10.60;99.90;;;;;;5018309;28;20015;-90
2024/03/20 00:19:06;;;;;;;24.33;10.57;;;10.60;99.90;;;;;;5017639;28;20033;-87
2024/03/20 00:21:34;;;;;;;23.20;11.13;;;10.60;99.90;;;;;;5017696;28;20026;-88
2024/03/20 00:24:00;;;;;;;27.27;11.50;;;10.60;99.90;;;;;;5018036;28;20022;-89
2024/03/20 00:26:29;;;;;;;21.73;10.77;;;10.50;99.90;;;;;;5018078;28;20022;-88
2024/03/20 00:28:55;;;;;;;28.55;11.68;;;10.50;99.90;;;;;;5017294;28;20017;-92
2024/03/20 00:31:21;;;;;;;21.58;11.65;;;10.50;99.90;;;;;;5017576;28;20090;-91
2024/03/20 00:33:47;;;;;;;26.20;12.15;;;10.50;99.90;;;;;;5017356;28;20325;-89
2024/03/20 00:36:12;;;;;;;26.23;11.05;;;10.50;99.90;;;;;;5017583;28;20030;-88
2024/03/20 00:38:39;;;;;;;23.40;10.95;;;10.50;99.90;;;;;;5017576;28;20026;-87
2024/03/20 00:41:05;;;;;;;23.10;11.55;;;10.50;99.90;;;;;;5016481;28;20006;-85
2024/03/20 00:43:31;;;;;;;23.98;11.15;;;10.40;99.90;;;;;;5017236;28;20050;-87
2024/03/20 00:45:57;;;;;;;22.08;9.88;;;10.50;99.90;;;;;;5017426;28;20034;-88
2024/03/20 00:48:22;;;;;;;26.83;10.18;;;10.50;99.90;;;;;;5014505;28;20042;-88
2024/03/20 00:50:48;;;;;;;20.67;10.32;;;10.40;99.90;;;;;;5017778;28;20017;-87
2024/03/20 00:53:14;;;;;;;24.20;9.77;;;10.40;99.90;;;;;;5014139;28;20003;-87
2024/03/20 00:55:41;;;;;;;26.38;10.35;;;10.40;99.90;;;;;;5016745;28;20046;-94
2024/03/20 00:58:10;;;;;;;19.55;9.93;;;10.40;99.90;;;;;;5016071;28;20111;-91
2024/03/20 01:00:36;;;;;;;22.25;10.63;;;10.40;99.90;;;;;;5015287;28;20002;-93
2024/03/20 01:03:03;;;;;;;21.40;10.35;;;10.30;99.90;;;;;;5015029;28;20095;-93
2024/03/20 01:05:28;;;;;;;23.20;10.00;;;10.30;99.90;;;;;;5015107;28;20018;-91
2024/03/20 01:07:54;;;;;;;22.98;11.13;;;10.30;99.90;;;;;;5014207;28;20010;-92
2024/03/20 01:10:20;;;;;;;26.70;11.57;;;10.30;99.90;;;;;;5014277;28;20034;-93
2024/03/20 01:12:47;;;;;;;22.00;10.25;;;10.30;99.90;;;;;;5013310;28;20487;-92
2024/03/20 01:15:12;;;;;;;20.92;9.73;;;10.30;99.90;;;;;;5012454;28;20018;-94
2024/03/20 01:17:38;;;;;;;23.15;9.82;;;10.30;99.90;;;;;;5015662;28;20122;-89
2024/03/20 01:20:05;;;;;;;26.70;11.80;;;10.20;99.90;;;;;;5015465;28;20034;-90
2024/03/20 01:22:35;;;;;;;26.17;11.63;;;10.20;99.90;;;;;;5015602;28;20045;-94
2024/03/20 01:25:01;;;;;;;25.38;10.70;;;10.30;99.90;;;;;;5014634;28;20089;-92
2024/03/20 01:27:27;;;;;;;21.15;10.20;;;10.20;99.90;;;;;;5012210;28;20041;-93
2024/03/20 01:29:53;;;;;;;22.20;10.50;;;10.20;99.90;;;;;;5011453;28;20070;-93
2024/03/20 01:32:18;;;;;;;21.42;10.70;;;10.20;99.90;;;;;;5011780;28;20030;-93
2024/03/20 01:34:44;;;;;;;24.60;11.55;;;10.20;99.90;;;;;;5011982;28;20030;-92
2024/03/20 01:37:10;;;;;;;22.40;10.30;;;10.20;99.90;;;;;;5012846;28;20026;-93
2024/03/20 01:39:35;;;;;;;23.27;10.75;;;10.10;99.90;;;;;;5017062;28;20054;-91
2024/03/20 01:42:01;;;;;;;20.25;10.82;;;10.10;99.90;;;;;;5016507;28;20006;-89
2024/03/20 01:44:27;;;;;;;25.25;10.95;;;10.10;99.90;;;;;;5016693;28;20026;-87
2024/03/20 01:46:52;;;;;;;22.83;9.75;;;10.10;99.90;;;;;;5016667;28;20022;-92
2024/03/20 01:49:19;;;;;;;22.42;9.45;;;10.10;99.90;;;;;;5016724;28;20026;-88
2024/03/20 01:51:45;;;;;;;20.67;9.10;;;10.10;99.90;;;;;;5016584;28;20029;-88
2024/03/20 01:54:12;;;;;;;24.75;9.77;;;10.10;99.90;;;;;;5018558;28;20033;-87
2024/03/20 01:56:38;;;;;;;28.42;12.00;;;10.10;99.90;;;;;;5018562;28;20109;-93
2024/03/20 01:59:03;;;;;;;29.88;12.13;;;10.10;99.90;;;;;;5013779;28;20037;-94
2024/03/20 02:01:30;;;;;;;26.13;11.40;;;10.10;99.90;;;;;;5016418;28;20014;-96
2024/03/20 02:03:57;;;;;;;29.65;10.25;;;10.10;99.90;;;;;;5018572;28;20028;-94
2024/03/20 02:06:28;;;;;;;22.92;10.13;;;10.00;99.90;;;;;;5016578;28;20023;-87
2024/03/20 02:08:55;;;;;;;24.75;10.50;;;10.00;99.90;;;;;;5017398;28;20030;-93
2024/03/20 02:11:22;;;;;;;26.88;11.68;;;10.00;99.90;;;;;;5018845;28;20103;-93
2024/03/20 02:13:50;;;;;;;25.65;11.32;;;10.10;99.90;;;;;;5019089;28;20019;-90
2024/03/20 02:16:17;;;;;;;26.83;11.50;;;10.10;99.90;;;;;;5019280;28;20038;-90
2024/03/20 02:18:44;;;;;;;29.05;11.98;;;10.10;99.90;;;;;;5018591;28;20027;-92
2024/03/20 02:21:17;;;;;;;29.13;12.30;;;10.00;99.90;;;;;;5017779;28;20101;-92
2024/03/20 02:23:43;;;;;;;20.52;11.18;;;10.00;99.90;;;;;;5016199;28;20038;-91
2024/03/20 02:26:10;;;;;;;22.02;10.52;;;10.00;99.90;;;;;;5017502;28;20024;-92
2024/03/20 02:28:40;;;;;;;24.33;10.73;;;10.00;99.90;;;;;;5017861;28;20034;-91
2024/03/20 02:31:07;;;;;;;25.65;10.70;;;9.90;99.90;;;;;;5031366;28;20095;-93
2024/03/20 02:33:33;;;;;;;22.23;9.57;;;9.90;99.90;;;;;;5014834;28;20026;-91
2024/03/20 02:35:59;;;;;;;23.80;9.55;;;9.90;99.90;;;;;;5015515;28;20038;-91
2024/03/20 02:38:30;;;;;;;24.65;10.80;;;9.90;99.90;;;;;;5016746;28;20018;-93
2024/03/20 02:40:56;;;;;;;25.63;10.02;;;9.90;99.90;;;;;;5015895;28;20026;-93
2024/03/20 02:43:23;;;;;;;22.48;10.57;;;9.90;99.90;;;;;;5017524;28;20073;-92
2024/03/20 02:45:48;;;;;;;19.63;9.93;;;9.90;99.90;;;;;;5018802;28;20049;-89
2024/03/20 02:48:14;;;;;;;26.70;11.75;;;9.90;99.90;;;;;;5018871;28;20014;-93
2024/03/20 02:50:43;;;;;;;21.55;11.02;;;9.80;99.90;;;;;;5018299;28;20026;-92
2024/03/20 02:53:09;;;;;;;24.85;11.65;;;9.80;99.90;;;;;;5018623;28;20027;-92
2024/03/20 02:55:37;;;;;;;30.27;12.02;;;9.80;99.90;;;;;;5017594;28;20097;-93
2024/03/20 02:58:04;;;;;;;22.17;9.77;;;9.80;99.90;;;;;;5032173;28;20030;-92
2024/03/20 03:00:30;;;;;;;19.67;9.75;;;9.80;99.90;;;;;;5017827;28;20094;-91
2024/03/20 03:02:57;;;;;;;20.70;10.00;;;9.80;99.90;;;;;;5019471;28;20017;-87
2024/03/20 03:05:24;;;;;;;21.10;10.32;;;9.80;99.90;;;;;;5015890;28;20014;-87
2024/03/20 03:07:51;;;;;;;20.55;9.80;;;9.80;99.90;;;;;;5018834;28;20033;-90
2024/03/20 03:10:17;;;;;;;22.75;11.20;;;9.80;99.90;;;;;;5018460;28;20042;-88
2024/03/20 03:12:46;;;;;;;21.52;11.23;;;9.80;99.90;;;;;;5018428;28;20094;-87
2024/03/20 03:15:12;;;;;;;24.50;11.73;;;9.80;99.90;;;;;;5018954;28;20061;-88
2024/03/20 03:17:40;;;;;;;20.90;11.05;;;9.80;99.90;;;;;;5018699;28;20213;-86
2024/03/20 03:20:13;;;;;;;20.83;10.63;;;9.80;99.90;;;;;;5016365;28;20014;-87
2024/03/20 03:22:39;;;;;;;21.70;10.15;;;9.80;99.90;;;;;;5018556;28;20011;-89
2024/03/20 03:25:05;;;;;;;23.50;11.70;;;9.70;99.90;;;;;;5018436;28;20018;-90
2024/03/20 03:27:31;;;;;;;24.08;11.52;;;9.70;99.90;;;;;;5018428;28;20002;-89
2024/03/20 03:29:57;;;;;;;20.67;11.00;;;9.70;99.90;;;;;;5018301;28;20053;-87
2024/03/20 03:32:22;;;;;;;21.05;11.38;;;9.60;99.90;;;;;;5017807;28;20045;-91
2024/03/20 03:34:48;;;;;;;18.08;10.18;;;9.60;99.90;;;;;;5018024;28;20055;-87
2024/03/20 03:37:14;;;;;;;21.02;10.70;;;9.60;99.90;;;;;;5018095;28;20021;-87
2024/03/20 03:39:39;;;;;;;23.60;11.35;;;9.70;99.90;;;;;;5018349;28;20010;-87
2024/03/20 03:42:05;;;;;;;24.70;11.57;;;9.70;99.90;;;;;;5017763;28;20015;-88
2024/03/20 03:44:31;;;;;;;20.25;10.20;;;9.70;99.90;;;;;;5018862;28;20019;-88
2024/03/20 03:46:57;;;;;;;24.92;11.50;;;9.70;99.90;;;;;;5018126;28;20094;-88
2024/03/20 03:49:23;;;;;;;24.70;11.25;;;9.70;99.90;;;;;;5018749;28;20017;-87
2024/03/20 03:51:48;;;;;;;23.17;11.02;;;9.70;99.90;;;;;;5018622;28;20037;-89
2024/03/20 03:54:14;;;;;;;22.63;11.18;;;9.70;99.90;;;;;;5018043;28;20011;-87
2024/03/20 03:56:40;;;;;;;22.45;12.00;;;9.70;99.90;;;;;;5017743;28;20038;-93
2024/03/20 03:59:05;;;;;;;24.42;12.13;;;9.70;99.90;;;;;;5017682;28;20016;-90
2024/03/20 04:01:31;;;;;;;22.48;11.27;;;9.70;99.90;;;;;;5017710;28;20018;-94
2024/03/20 04:03:57;;;;;;;24.52;12.38;;;9.70;99.90;;;;;;5013288;28;20056;-93
2024/03/20 04:06:23;;;;;;;22.88;11.63;;;9.70;99.90;;;;;;5016350;28;20029;-91
2024/03/20 04:08:49;;;;;;;23.90;10.88;;;9.70;99.90;;;;;;5016771;28;20010;-90
2024/03/20 04:11:14;;;;;;;28.65;12.40;;;9.70;99.90;;;;;;5032611;28;20061;-92
2024/03/20 04:13:40;;;;;;;30.80;11.32;;;9.70;99.90;;;;;;5020528;28;20026;-90
2024/03/20 04:16:06;;;;;;;24.08;10.80;;;9.70;99.90;;;;;;5019690;28;20057;-92
2024/03/20 04:18:31;;;;;;;20.88;10.07;;;9.70;99.90;;;;;;5020636;28;20014;-89
2024/03/20 04:20:57;;;;;;;22.95;9.85;;;9.70;99.90;;;;;;5020575;28;20014;-90
2024/03/20 04:23:26;;;;;;;27.23;11.32;;;9.60;99.90;;;;;;5020277;28;20014;-92
2024/03/20 04:25:52;;;;;;;26.10;11.60;;;9.70;99.90;;;;;;5017853;28;20025;-91
2024/03/20 04:28:18;;;;;;;25.13;11.50;;;9.60;99.90;;;;;;5018973;28;20046;-93
2024/03/20 04:30:44;;;;;;;23.10;11.27;;;9.70;99.90;;;;;;5019129;28;20098;-90
2024/03/20 04:33:09;;;;;;;21.15;9.93;;;9.60;99.90;;;;;;5035499;28;20014;-91
2024/03/20 04:35:35;;;;;;;23.77;10.73;;;9.60;99.90;;;;;;5018736;28;20030;-92
2024/03/20 04:38:01;;;;;;;28.58;11.75;;;9.60;99.90;;;;;;5018422;28;20021;-93
2024/03/20 04:40:27;;;;;;;23.52;10.20;;;9.60;99.90;;;;;;5016103;28;20026;-92
2024/03/20 04:42:53;;;;;;;21.20;9.95;;;9.60;99.90;;;;;;5015860;28;20041;-94
2024/03/20 04:45:20;;;;;;;23.13;9.75;;;9.60;99.90;;;;;;5014328;28;20069;-95
2024/03/20 04:47:46;;;;;;;21.25;9.52;;;9.60;99.90;;;;;;5015838;28;19998;-94
2024/03/20 04:50:12;;;;;;;19.35;9.68;;;9.60;99.90;;;;;;5013576;28;20040;-94
2024/03/20 04:52:39;;;;;;;18.25;9.10;;;9.60;99.90;;;;;;5011641;28;20025;-92
2024/03/20 04:55:05;;;;;;;25.52;9.25;;;9.60;99.90;;;;;;5009836;28;20127;-93
2024/03/20 04:57:31;;;;;;;22.90;8.98;;;9.50;99.90;;;;;;5014062;28;20052;-93
2024/03/20 04:59:57;;;;;;;23.20;9.18;;;9.60;99.90;;;;;;5014927;28;20097;-92
2024/03/20 05:02:23;;;;;;;20.67;8.88;;;9.60;99.90;;;;;;5014715;28;20037;-92
2024/03/20 05:04:48;;;;;;;19.67;8.68;;;9.60;99.90;;;;;;5012901;28;20026;-95
2024/03/20 05:07:14;;;;;;;22.65;9.52;;;9.60;99.90;;;;;;5014563;28;20018;-94
2024/03/20 05:09:40;;;;;;;21.90;9.10;;;9.50;99.90;;;;;;5014064;28;20030;-91
2024/03/20 05:12:06;;;;;;;24.10;10.63;;;9.60;99.90;;;;;;5017579;28;20398;-92
2024/03/20 05:14:32;;;;;;;17.80;8.35;;;9.50;99.90;;;;;;5019259;28;20025;-91
2024/03/20 05:17:00;;;;;;;19.75;9.40;;;9.50;99.90;;;;;;5019699;28;20030;-93
2024/03/20 05:19:29;;;;;;;23.50;9.40;;;9.50;99.90;;;;;;5015333;28;20036;-91
2024/03/20 05:21:55;;;;;;;20.98;10.00;;;9.50;99.90;;;;;;5020517;28;20014;-92
2024/03/20 05:24:21;;;;;;;20.30;9.80;;;9.50;99.90;;;;;;5019850;28;20094;-90
2024/03/20 05:26:46;;;;;;;25.83;10.43;;;9.50;99.90;;;;;;5037070;28;20018;-89
2024/03/20 05:29:12;;;;;;;21.63;9.70;;;9.50;99.90;;;;;;5023523;28;20033;-91
2024/03/20 05:31:38;;;;;;;21.02;10.18;;;9.50;99.90;;;;;;5023406;28;20021;-88
2024/03/20 05:34:04;;;;;;;26.38;10.65;;;9.50;99.90;;;;;;5023184;28;20061;-92
2024/03/20 05:36:30;;;;;;;24.58;12.10;;;9.60;99.90;;;;;;5022360;28;20170;-91
2024/03/20 05:38:56;;;;;;;28.38;10.80;;;9.50;99.90;;;;;;5021374;28;20022;-93
2024/03/20 05:41:22;;;;;;;26.52;12.15;;;9.50;99.90;;;;;;5022634;28;20022;-90
2024/03/20 05:43:48;;;;;;;22.92;10.88;;;9.50;99.90;;;;;;5040070;28;20026;-92
2024/03/20 05:46:14;;;;;;;24.30;11.77;;;9.50;99.90;;;;;;5022926;28;20017;-94
2024/03/20 05:48:42;;;;;;;27.30;12.45;;;9.50;99.90;;;;;;5022765;28;20057;-92
2024/03/20 05:51:08;;;;;;;30.10;12.20;;;9.60;99.90;;;;;;5021869;28;20047;-92
2024/03/20 05:53:33;;;;;;;29.08;11.88;;;9.50;99.90;;;;;;5021100;28;20033;-93
2024/03/20 05:55:59;;;;;;;27.48;11.85;;;9.50;99.90;;;;;;5021245;28;20045;-88
2024/03/20 05:58:25;;;;;;;28.92;11.77;;;9.50;99.90;;;;;;5016692;28;20025;-91
2024/03/20 06:00:51;;;;;;;28.20;12.30;;;9.60;99.90;;;;;;5021692;28;20022;-93
2024/03/20 06:03:18;;;;;;;28.63;11.35;;;9.60;99.90;;;;;;5039482;28;20049;-89
2024/03/20 06:05:45;;;;;;;25.10;12.02;;;9.60;99.90;;;;;;5021736;28;20293;-93
2024/03/20 06:08:11;;;;;;;24.42;11.18;;;9.60;99.90;;;;;;5021756;28;20022;-94
2024/03/20 06:10:36;;;;;;;24.50;11.98;;;9.60;99.90;;;;;;5021292;28;20052;-95
2024/03/20 06:13:02;;;;;;;25.08;11.35;;;9.60;99.90;;;;;;5021316;28;20018;-91
2024/03/20 06:15:28;;;;;;;24.45;10.85;;;9.60;99.90;;;;;;5021210;28;20048;-93
2024/03/20 06:17:54;;;;;;;27.73;11.15;;;9.60;99.90;;;;;;5020334;28;20037;-93
2024/03/20 06:20:20;;;;;;;24.65;10.95;;;9.60;99.90;;;;;;5020613;28;20022;-94
2024/03/20 06:22:46;;;;;;;26.88;12.15;;;9.60;99.90;;;;;;5021083;28;20030;-93
2024/03/20 06:25:12;;;;;;;27.98;11.50;;;9.60;99.90;;;;;;5021339;28;20030;-94
2024/03/20 06:27:38;;;;;;;30.83;13.07;;;9.70;99.90;;;;;;5021245;28;20026;-92
2024/03/20 06:30:11;;;;;;;27.75;11.77;;;9.70;99.90;;;;;;5018313;28;20034;-91
2024/03/20 06:32:41;;;;;;;30.23;12.63;;;9.70;99.90;;;;;;5020621;28;20024;-94
2024/03/20 06:35:08;;;;;;;30.13;11.87;;;9.70;99.90;;;;;;5034646;28;20045;-94
2024/03/20 06:37:34;;;;;;;27.17;11.55;;;9.70;99.90;;;;;;5019928;28;20545;-94
2024/03/20 06:40:00;;;;;;;26.00;12.25;;;9.70;99.90;;;;;;5019602;28;20030;-90
2024/03/20 06:42:27;;;;;;;24.83;11.73;;;9.70;99.90;;;;;;5020014;28;20049;-93
2024/03/20 06:44:54;;;;;;;27.80;11.93;;;9.70;99.90;;;;;;5037254;28;20014;-93
2024/03/20 06:47:20;;;;;;;34.15;12.90;;;9.70;99.90;;;;;;5019578;28;20021;-94
2024/03/20 06:49:47;;;;;;;26.23;11.20;;;9.70;99.90;;;;;;5019634;28;20030;-93
2024/03/20 06:52:16;;;;;;;26.70;12.52;;;9.60;99.90;;;;;;5017847;28;20053;-91
2024/03/20 06:54:44;;;;;;;34.60;13.70;;;9.60;99.90;;;;;;5018226;28;20073;-90
2024/03/20 06:57:11;;;;;;;29.77;12.15;;;9.60;99.90;;;;;;5018343;28;20057;-91
2024/03/20 06:59:40;;;;;;;23.63;11.05;;;9.60;99.90;;;;;;5018175;28;20041;-91
2024/03/20 07:02:06;;;;;;;21.60;11.07;;;9.70;99.90;;;;;;5017044;28;20036;-93
2024/03/20 07:04:32;;;;;;;25.45;11.52;;;9.60;99.90;;;;;;5018078;28;20089;-91
2024/03/20 07:06:58;;;;;;;30.98;12.23;;;9.70;99.90;;;;;;5020050;28;20018;-92
2024/03/20 07:09:25;;;;;;;28.50;12.52;;;9.70;99.90;;;;;;5019850;28;20049;-89
2024/03/20 07:11:51;;;;;;;35.88;14.18;;;9.70;99.90;;;;;;5018886;28;20049;-93
2024/03/20 07:14:18;;;;;;;23.73;11.73;;;9.70;99.90;;;;;;5018278;28;20030;-91
2024/03/20 07:16:46;;;;;;;26.88;12.48;;;9.80;99.90;;;;;;5014495;28;20106;-95
2024/03/20 07:19:13;;;;;;;28.42;12.73;;;9.80;99.90;;;;;;5013364;28;20046;-91
2024/03/20 07:21:41;;;;;;;29.48;13.43;;;9.80;99.90;;;;;;5015687;28;20056;-91
2024/03/20 07:24:08;;;;;;;29.63;12.27;;;9.80;99.90;;;;;;5009808;28;20089;-93
2024/03/20 07:26:38;;;;;;;34.78;12.73;;;9.80;99.90;;;;;;5010234;28;20022;-94
2024/03/20 07:29:11;;;;;;;32.30;12.80;;;9.80;99.90;;;;;;5029633;28;20022;-93
2024/03/20 07:31:37;;;;;;;27.20;12.23;;;9.80;99.90;;;;;;5017818;28;20091;-89
2024/03/20 07:34:04;;;;;;;33.25;13.77;;;9.80;99.90;;;;;;5031306;28;20026;-93
2024/03/20 07:36:33;;;;;;;29.48;12.88;;;9.90;99.90;;;;;;5015661;28;20024;-90
2024/03/20 07:39:00;;;;;;;28.15;12.57;;;9.90;99.90;;;;;;5011433;28;20037;-92
2024/03/20 07:41:26;;;;;;;27.92;13.05;;;10.00;99.90;;;;;;5015679;28;20033;-91
2024/03/20 07:43:52;;;;;;;27.13;12.52;;;10.00;99.90;;;;;;5015956;28;20014;-94
2024/03/20 07:46:18;;;;;;;31.52;13.30;;;10.00;99.90;;;;;;5014343;28;20129;-91
2024/03/20 07:48:44;;;;;;;31.85;13.57;;;10.00;99.90;;;;;;5013696;28;20104;-92
2024/03/20 07:51:10;;;;;;;33.95;14.13;;;10.10;99.90;;;;;;5017050;28;20174;-92
2024/03/20 07:53:36;;;;;;;30.88;13.05;;;10.10;99.90;;;;;;5014744;28;20037;-90
2024/03/20 07:56:03;;;;;;;31.17;12.82;;;10.20;99.90;;;;;;5014462;28;20041;-93
2024/03/20 07:58:29;;;;;;;37.05;14.18;;;10.20;99.90;;;;;;5016520;28;20093;-91
2024/03/20 08:00:57;;;;;;;37.40;14.57;;;10.30;99.90;;;;;;5012708;28;20076;-92
2024/03/20 08:03:23;;;;;;;36.10;13.77;;;10.30;99.90;;;;;;5015267;28;20640;-92
2024/03/20 08:05:48;;;;;;;37.80;13.85;;;10.40;99.90;;;;;;5015254;28;20032;-94
2024/03/20 08:08:14;;;;;;;34.42;13.23;;;10.40;99.90;;;;;;5013227;28;20128;-94
2024/03/20 08:10:40;;;;;;;31.42;14.38;;;10.40;99.90;;;;;;5007155;28;20125;-94
2024/03/20 08:13:09;;;;;;;30.67;14.10;;;10.50;99.90;;;;;;4997223;28;20033;-95
2024/03/20 08:15:36;;;;;;;28.73;13.52;;;10.50;99.90;;;;;;4996596;28;20495;-92
2024/03/20 08:18:02;;;;;;;38.40;15.50;;;10.50;99.90;;;;;;5003339;28;20026;-91
2024/03/20 08:20:28;;;;;;;39.40;14.25;;;10.60;99.90;;;;;;5006246;28;20057;-93
2024/03/20 08:22:53;;;;;;;32.45;13.75;;;10.60;99.90;;;;;;5004672;28;20080;-90
2024/03/20 08:25:20;;;;;;;29.52;14.00;;;10.60;99.90;;;;;;5006689;28;20101;-90
2024/03/20 08:27:45;;;;;;;26.15;11.77;;;10.60;99.90;;;;;;5014669;28;20023;-93
2024/03/20 08:30:13;;;;;;;33.42;14.65;;;10.70;99.90;;;;;;5007962;28;20094;-93
2024/03/20 08:32:39;;;;;;;30.08;13.13;;;10.70;99.90;;;;;;5009383;28;20554;-91
2024/03/20 08:35:07;;;;;;;32.58;12.95;;;10.70;99.90;;;;;;5015610;28;20043;-90
2024/03/20 08:37:33;;;;;;;34.30;14.15;;;10.80;99.90;;;;;;5008837;28;20073;-92
2024/03/20 08:40:01;;;;;;;36.92;16.33;;;10.80;99.90;;;;;;5012961;28;20041;-95
2024/03/20 08:42:27;;;;;;;28.70;12.43;;;10.80;99.90;;;;;;5010841;28;20045;-93
2024/03/20 08:44:53;;;;;;;31.05;14.52;;;10.90;99.90;;;;;;5011455;28;20102;-93
2024/03/20 08:47:19;;;;;;;36.72;14.65;;;10.90;99.90;;;;;;5011325;28;20045;-93
2024/03/20 08:49:45;;;;;;;35.20;14.30;;;11.00;99.90;;;;;;5007675;28;20532;-92
2024/03/20 08:52:12;;;;;;;36.03;14.27;;;11.00;99.90;;;;;;5005153;28;20018;-87
2024/03/20 08:54:43;;;;;;;38.80;13.95;;;11.00;99.90;;;;;;5005917;28;20022;-88
2024/03/20 08:57:12;;;;;;;34.38;14.60;;;11.00;99.90;;;;;;5015758;28;20106;-87
2024/03/20 08:59:38;;;;;;;38.40;13.48;;;11.10;99.90;;;;;;5009495;28;20015;-90
2024/03/20 09:02:04;;;;;;;32.58;13.52;;;11.10;99.90;;;;;;5015848;28;20015;-89
2024/03/20 09:04:29;;;;;;;33.78;14.52;;;11.20;99.90;;;;;;5021997;28;20042;-90
2024/03/20 09:06:55;;;;;;;35.20;15.13;;;11.20;99.90;;;;;;5019555;28;20099;-90
2024/03/20 09:09:21;;;;;;;28.77;13.02;;;11.30;99.90;;;;;;5022535;28;20049;-88
2024/03/20 09:11:47;;;;;;;25.63;11.52;;;11.30;99.90;;;;;;5022370;28;20106;-87
2024/03/20 09:14:13;;;;;;;33.17;13.70;;;11.40;99.90;;;;;;5022276;28;20019;-89
2024/03/20 09:16:39;;;;;;;34.25;14.73;;;11.40;99.90;;;;;;5022061;28;20034;-90
2024/03/20 09:19:05;;;;;;;36.80;13.18;;;11.40;99.90;;;;;;5022667;28;20087;-87
2024/03/20 09:21:34;;;;;;;33.50;14.38;;;11.50;99.90;;;;;;5022558;28;20149;-89
2024/03/20 09:24:00;;;;;;;39.67;15.35;;;11.50;99.90;;;;;;5018976;28;20022;-91
2024/03/20 09:26:26;;;;;;;33.95;14.68;;;11.50;99.90;;;;;;5019674;28;20038;-89
2024/03/20 09:28:52;;;;;;;33.47;14.93;;;11.40;99.90;;;;;;5021317;28;20041;-93
2024/03/20 09:31:17;;;;;;;34.42;14.93;;;11.40;99.90;;;;;;5021731;28;20041;-89
2024/03/20 09:33:43;;;;;;;34.88;14.05;;;11.40;99.90;;;;;;5020389;28;20450;-91
2024/03/20 09:36:09;;;;;;;35.65;15.57;;;11.40;99.90;;;;;;5021106;28;20034;-93
2024/03/20 09:38:34;;;;;;;33.05;14.13;;;11.40;99.90;;;;;;5019930;28;20042;-89
2024/03/20 09:41:00;;;;;;;29.35;12.98;;;11.40;99.90;;;;;;5021704;28;20029;-95
2024/03/20 09:43:26;;;;;;;33.03;14.05;;;11.50;99.90;;;;;;5014753;28;20030;-95
2024/03/20 09:45:54;;;;;;;24.00;11.63;;;11.50;99.90;;;;;;5010449;28;20014;-87
2024/03/20 09:48:21;;;;;;;25.83;12.18;;;11.50;99.90;;;;;;5021986;28;20082;-90
2024/03/20 09:50:49;;;;;;;23.85;11.77;;;11.60;99.90;;;;;;5021861;28;20031;-88
2024/03/20 09:53:14;;;;;;;24.27;10.20;;;11.60;99.90;;;;;;5018021;28;20061;-90
2024/03/20 09:55:43;;;;;;;23.40;10.93;;;11.60;99.90;;;;;;5020391;28;20026;-88
2024/03/20 09:58:13;;;;;;;29.35;12.73;;;11.60;99.90;;;;;;5021579;28;20081;-88
2024/03/20 10:00:39;;;;;;;21.42;10.95;;;11.70;99.90;;;;;;5021026;28;20053;-86
2024/03/20 10:03:07;;;;;;;23.42;10.40;;;11.70;99.90;;;;;;5021247;28;20046;-87
2024/03/20 10:05:33;;;;;;;20.60;9.73;;;11.80;99.90;;;;;;5021566;28;20033;-89
2024/03/20 10:07:59;;;;;;;25.90;9.75;;;11.80;99.90;;;;;;5021505;28;20010;-88
2024/03/20 10:10:25;;;;;;;18.30;9.27;;;11.90;99.90;;;;;;5021218;28;20030;-88
2024/03/20 10:12:50;;;;;;;16.02;7.88;;;11.90;99.90;;;;;;5020819;28;20091;-88
2024/03/20 10:15:23;;;;;;;9.65;5.20;;;12.00;99.90;;;;;;5017130;28;20031;-88
2024/03/20 10:17:49;;;;;;;14.55;5.93;;;12.00;99.90;;;;;;5018414;28;20007;-87
2024/03/20 10:20:17;;;;;;;12.38;6.15;;;12.10;99.90;;;;;;5018501;28;20036;-88
2024/03/20 10:22:45;;;;;;;11.18;5.68;;;12.10;99.90;;;;;;5017518;28;20049;-88
2024/03/20 10:25:13;;;;;;;8.30;4.68;;;12.10;99.90;;;;;;5018062;28;20034;-90
2024/03/20 10:27:40;;;;;;;5.32;2.72;;;12.10;99.90;;;;;;5018035;28;20058;-87
2024/03/20 10:30:23;;;;;;;4.30;2.85;;;12.10;99.90;;;;;;5018340;28;20011;-88
2024/03/20 10:32:52;;;;;;;8.18;3.42;;;12.10;99.90;;;;;;5016557;28;20022;-87
2024/03/20 10:35:23;;;;;;;9.05;4.18;;;12.10;99.90;;;;;;5016822;28;20031;-89
2024/03/20 10:37:50;;;;;;;11.68;4.90;;;12.20;99.90;;;;;;5016089;28;20034;-87
2024/03/20 10:40:20;;;;;;;9.98;4.97;;;12.20;99.90;;;;;;5013778;28;20038;-94
2024/03/20 10:42:50;;;;;;;7.65;4.80;;;12.30;99.90;;;;;;5015854;28;20061;-92
2024/03/20 10:45:18;;;;;;;8.73;4.63;;;12.30;99.90;;;;;;5011743;28;20355;-94
2024/03/20 10:47:45;;;;;;;7.63;4.10;;;12.40;99.90;;;;;;5010008;28;20031;-93
2024/03/20 10:50:13;;;;;;;7.07;4.03;;;12.50;99.90;;;;;;5007476;28;20057;-94
2024/03/20 10:52:41;;;;;;;8.68;4.47;;;12.60;99.90;;;;;;5011602;28;20019;-90
2024/03/20 10:55:10;;;;;;;4.40;2.47;;;12.70;99.90;;;;;;5015827;28;20062;-93
2024/03/20 10:57:37;;;;;;;4.10;2.10;;;12.70;99.90;;;;;;5011380;28;20031;-90
2024/03/20 11:00:09;;;;;;;3.47;1.73;;;12.80;99.90;;;;;;5012037;28;20031;-91
2024/03/20 11:02:36;;;;;;;2.47;1.65;;;12.80;99.90;;;;;;5008971;28;20014;-90
2024/03/20 11:05:02;;;;;;;2.90;1.50;;;12.80;99.90;;;;;;5009088;28;20053;-96
2024/03/20 11:07:28;;;;;;;2.25;1.52;;;12.90;99.90;;;;;;5009553;28;20022;-93
2024/03/20 11:09:57;;;;;;;3.75;1.92;;;12.90;99.90;;;;;;5011722;28;20017;-91
2024/03/20 11:12:36;;;;;;;4.60;1.60;;;13.00;99.90;;;;;;5013728;28;20038;-93
2024/03/20 11:15:04;;;;;;;3.90;1.20;;;13.00;99.90;;;;;;5007360;28;20038;-94
2024/03/20 11:17:37;;;;;;;1.60;1.50;;;13.10;99.90;;;;;;5014994;28;20037;-91
2024/03/20 11:20:09;;;;;;;2.70;1.30;;;13.20;99.90;;;;;;5018948;28;20033;-94
2024/03/20 11:22:36;;;;;;;2.25;1.50;;;13.20;99.90;;;;;;5016058;28;20053;-92
2024/03/20 11:25:04;;;;;;;2.78;1.40;;;13.20;99.90;;;;;;5015459;28;20105;-92
2024/03/20 11:27:32;;;;;;;2.63;1.27;;;13.30;99.90;;;;;;5015724;28;20025;-91
2024/03/20 11:29:57;;;;;;;3.47;1.30;;;13.50;99.90;;;;;;5015377;28;20026;-89
2024/03/20 11:32:23;;;;;;;3.08;1.10;;;13.60;99.90;;;;;;5016572;28;20102;-90
2024/03/20 11:34:49;;;;;;;2.13;1.25;;;13.70;99.90;;;;;;5013726;28;20040;-93
2024/03/20 11:37:19;;;;;;;1.70;1.10;;;13.70;99.90;;;;;;5015155;28;20048;-93
2024/03/20 11:39:46;;;;;;;1.42;0.80;;;13.80;99.90;;;;;;5015360;28;20007;-89
2024/03/20 11:42:13;;;;;;;3.22;1.00;;;13.80;99.90;;;;;;5014287;28;20093;-93
2024/03/20 11:44:40;;;;;;;4.28;0.88;;;13.80;99.90;;;;;;5018161;28;20022;-88
2024/03/20 11:47:13;;;;;;;3.50;1.13;;;13.80;99.90;;;;;;5019714;28;20034;-89
2024/03/20 11:49:47;;;;;;;2.63;0.95;;;13.70;99.90;;;;;;5019766;28;20030;-93
2024/03/20 11:52:17;;;;;;;1.77;1.17;;;13.70;99.90;;;;;;5018683;28;20010;-89
2024/03/20 11:54:44;;;;;;;;;;;13.70;99.90;;;;;;5019261;28;20046;-91
2024/03/20 11:57:12;;;;;;;3.05;0.65;;;13.70;99.90;;;;;;5016675;28;19968;-92
2024/03/20 11:59:39;;;;;;;0.85;0.82;;;13.70;99.90;;;;;;5017654;28;20074;-94
2024/03/20 12:02:08;;;;;;;2.17;1.15;;;13.80;99.90;;;;;;5013665;28;20022;-90
2024/03/20 12:04:35;;;;;;;1.75;1.10;;;13.80;99.90;;;;;;5012951;28;20033;-90
2024/03/20 12:07:01;;;;;;;1.88;1.33;;;13.90;99.90;;;;;;5013175;28;20029;-92
2024/03/20 12:09:27;;;;;;;2.08;1.20;;;14.00;99.90;;;;;;5010568;28;20037;-91
2024/03/20 12:11:52;;;;;;;2.80;1.60;;;13.90;99.90;;;;;;5005148;28;20100;-92
2024/03/20 12:14:18;;;;;;;2.55;1.73;;;14.00;99.90;;;;;;5001575;28;20030;-92
2024/03/20 12:16:44;;;;;;;2.72;1.33;;;14.00;99.90;;;;;;5002129;28;20056;-93
2024/03/20 12:19:10;;;;;;;2.22;1.50;;;13.90;99.90;;;;;;5000871;28;20022;-92
2024/03/20 12:21:36;;;;;;;2.72;1.20;;;13.80;99.90;;;;;;4999767;28;20036;-93
2024/03/20 12:24:01;;;;;;;2.80;1.33;;;13.70;99.90;;;;;;5001243;28;20543;-92
2024/03/20 12:26:29;;;;;;;3.88;1.23;;;13.70;99.90;;;;;;5018205;28;20022;-89
2024/03/20 12:28:55;;;;;;;2.20;1.40;;;13.70;99.90;;;;;;5017598;28;20024;-88
2024/03/20 12:31:22;;;;;;;2.38;1.70;;;13.60;99.90;;;;;;5018363;28;20029;-88
2024/03/20 12:33:52;;;;;;;1.17;1.08;;;13.50;99.90;;;;;;5018389;28;20064;-87